createdAt,value
2018-05-21T00:02:23.798Z,16.60
2018-05-21T00:04:52.234Z,16.50
2018-05-21T00:07:20.931Z,16.50
2018-05-21T00:09:49.101Z,16.70
2018-05-21T00:12:17.771Z,16.60
2018-05-21T00:14:46.336Z,16.70
2018-05-21T00:17:14.934Z,16.60
2018-05-21T00:19:43.109Z,16.60
2018-05-21T00:22:12.435Z,16.70
2018-05-21T00:24:40.843Z,16.70
2018-05-21T00:27:09.379Z,16.60
2018-05-21T00:29:37.559Z,16.50
2018-05-21T00:32:06.234Z,16.60
2018-05-21T00:34:34.750Z,16.60
2018-05-21T00:37:02.965Z,16.40
2018-05-21T00:39:31.794Z,16.40
2018-05-21T00:41:59.977Z,16.30
2018-05-21T00:44:28.644Z,16.30
2018-05-21T00:46:58.110Z,16.30
2018-05-21T00:49:27.054Z,16.30
2018-05-21T00:51:56.087Z,16.30
2018-05-21T00:54:25.971Z,16.20
2018-05-21T00:56:54.406Z,16.20
2018-05-21T00:59:22.559Z,16.20
2018-05-21T01:01:51.026Z,16.30
2018-05-21T01:04:19.670Z,16.20
2018-05-21T01:06:49.751Z,16.10
2018-05-21T01:09:19.646Z,16.00
2018-05-21T01:11:48.172Z,16.00
2018-05-21T01:14:18.579Z,15.90
2018-05-21T01:16:46.998Z,15.80
2018-05-21T01:19:15.454Z,15.90
2018-05-21T01:21:44.049Z,15.80
2018-05-21T01:24:12.471Z,15.60
2018-05-21T01:26:41.691Z,15.70
2018-05-21T01:29:11.194Z,15.60
2018-05-21T01:31:40.854Z,15.70
2018-05-21T01:34:09.038Z,15.80
2018-05-21T01:36:37.710Z,15.80
2018-05-21T01:39:06.131Z,15.70
2018-05-21T01:41:34.553Z,15.80
2018-05-21T01:44:02.958Z,15.50
2018-05-21T01:46:32.111Z,15.50
2018-05-21T01:49:01.550Z,15.30
2018-05-21T01:51:29.627Z,15.30
2018-05-21T01:53:57.807Z,15.30
2018-05-21T01:56:26.229Z,15.40
2018-05-21T01:58:55.370Z,15.40
2018-05-21T02:01:23.975Z,15.30
2018-05-21T02:03:53.151Z,15.30
2018-05-21T02:06:22.303Z,15.30
2018-05-21T02:08:50.807Z,15.20
2018-05-21T02:11:19.994Z,15.20
2018-05-21T02:13:48.625Z,15.10
2018-05-21T02:16:17.046Z,15.00
2018-05-21T02:18:45.443Z,15.00
2018-05-21T02:21:13.671Z,15.00
2018-05-21T02:23:41.842Z,14.90
2018-05-21T02:26:10.283Z,15.00
2018-05-21T02:28:39.167Z,15.00
2018-05-21T02:31:08.602Z,15.00
2018-05-21T02:33:36.782Z,15.00
2018-05-21T02:36:05.252Z,15.00
2018-05-21T02:38:33.986Z,14.90
2018-05-21T02:41:03.137Z,14.90
2018-05-21T02:43:31.835Z,14.90
2018-05-21T02:46:00.362Z,14.70
2018-05-21T02:48:29.538Z,14.80
2018-05-21T02:50:57.971Z,14.80
2018-05-21T02:53:27.332Z,14.80
2018-05-21T02:55:55.650Z,14.80
2018-05-21T02:58:24.450Z,14.80
2018-05-21T03:00:53.630Z,14.70
2018-05-21T03:03:23.386Z,14.70
2018-05-21T03:05:51.841Z,14.70
2018-05-21T03:08:19.987Z,14.70
2018-05-21T03:10:48.438Z,14.60
2018-05-21T03:13:16.999Z,14.50
2018-05-21T03:15:45.386Z,14.50
2018-05-21T03:18:13.595Z,14.50
2018-05-21T03:20:42.785Z,14.60
2018-05-21T03:23:11.755Z,14.60
2018-05-21T03:25:40.010Z,14.60
2018-05-21T03:28:09.721Z,14.60
2018-05-21T03:30:38.548Z,14.50
2018-05-21T03:33:07.084Z,14.50
2018-05-21T03:35:36.062Z,14.40
2018-05-21T03:38:05.077Z,14.30
2018-05-21T03:40:33.497Z,14.40
2018-05-21T03:43:02.634Z,14.30
2018-05-21T03:45:30.957Z,14.30
2018-05-21T03:47:59.597Z,14.30
2018-05-21T03:50:28.749Z,14.20
2018-05-21T03:52:56.918Z,14.20
2018-05-21T03:55:25.446Z,14.10
2018-05-21T03:57:54.644Z,14.10
2018-05-21T04:00:35.474Z,14.20
2018-05-21T04:03:17.385Z,14.10
2018-05-21T04:05:47.986Z,14.10
2018-05-21T04:08:16.525Z,14.20
2018-05-21T04:10:44.706Z,14.20
2018-05-21T04:13:12.888Z,14.20
2018-05-21T04:15:41.360Z,14.20
2018-05-21T04:18:09.562Z,14.20
2018-05-21T04:20:37.774Z,14.20
2018-05-21T04:23:06.431Z,14.10
2018-05-21T04:25:34.599Z,14.00
2018-05-21T04:28:02.755Z,14.20
2018-05-21T04:30:31.990Z,14.30
2018-05-21T04:33:01.071Z,14.30
2018-05-21T04:35:30.308Z,14.40
2018-05-21T04:37:58.455Z,14.40
2018-05-21T04:40:26.634Z,14.40
2018-05-21T04:42:54.842Z,14.50
2018-05-21T04:45:23.366Z,14.60
2018-05-21T04:47:51.522Z,14.60
2018-05-21T04:50:19.986Z,14.60
2018-05-21T04:52:48.530Z,14.60
2018-05-21T04:55:19.023Z,14.70
2018-05-21T04:57:48.070Z,14.70
2018-05-21T05:00:19.012Z,14.80
2018-05-21T05:02:47.537Z,14.90
2018-05-21T05:05:16.570Z,14.80
2018-05-21T05:07:44.774Z,14.90
2018-05-21T05:10:14.059Z,15.00
2018-05-21T05:12:42.788Z,15.10
2018-05-21T05:15:10.928Z,15.10
2018-05-21T05:17:40.978Z,15.30
2018-05-21T05:20:09.918Z,15.30
2018-05-21T05:22:38.353Z,15.40
2018-05-21T05:25:06.502Z,15.40
2018-05-21T05:27:35.986Z,15.50
2018-05-21T05:30:06.631Z,15.60
2018-05-21T05:32:35.783Z,15.60
2018-05-21T05:35:04.311Z,15.70
2018-05-21T05:37:32.918Z,15.60
2018-05-21T05:40:01.479Z,15.80
2018-05-21T05:42:31.259Z,15.90
2018-05-21T05:44:59.789Z,15.90
2018-05-21T05:47:28.937Z,16.10
2018-05-21T05:49:57.109Z,16.20
2018-05-21T05:52:25.674Z,16.30
2018-05-21T05:54:54.814Z,16.40
2018-05-21T05:57:22.994Z,16.30
2018-05-21T05:59:51.460Z,16.30
2018-05-21T06:02:20.404Z,16.40
2018-05-21T06:04:48.825Z,16.40
2018-05-21T06:07:19.857Z,16.50
2018-05-21T06:09:48.278Z,16.50
2018-05-21T06:12:16.805Z,16.60
2018-05-21T06:14:45.194Z,16.70
2018-05-21T06:17:13.855Z,16.80
2018-05-21T06:19:42.241Z,16.90
2018-05-21T06:22:12.791Z,17.10
2018-05-21T06:24:42.763Z,17.10
2018-05-21T06:27:11.158Z,17.20
2018-05-21T06:29:40.126Z,17.40
2018-05-21T06:32:09.397Z,17.50
2018-05-21T06:34:38.295Z,17.40
2018-05-21T06:37:06.868Z,17.60
2018-05-21T06:39:35.898Z,17.60
2018-05-21T06:42:05.367Z,17.60
2018-05-21T06:44:34.313Z,17.60
2018-05-21T06:47:03.463Z,17.80
2018-05-21T06:49:32.105Z,17.80
2018-05-21T06:52:00.530Z,17.90
2018-05-21T06:54:29.562Z,18.00
2018-05-21T06:56:57.743Z,18.10
2018-05-21T06:59:26.313Z,18.20
2018-05-21T07:01:54.447Z,18.50
2018-05-21T07:04:23.806Z,18.50
2018-05-21T07:06:52.863Z,18.70
2018-05-21T07:09:21.459Z,18.70
2018-05-21T07:11:50.394Z,19.00
2018-05-21T07:14:18.578Z,19.10
2018-05-21T07:16:46.791Z,19.00
2018-05-21T07:19:15.457Z,19.20
2018-05-21T07:21:43.983Z,19.20
2018-05-21T07:24:12.406Z,19.50
2018-05-21T07:26:41.453Z,19.50
2018-05-21T07:29:10.439Z,19.80
2018-05-21T07:31:39.548Z,19.70
2018-05-21T07:34:07.959Z,19.90
2018-05-21T07:36:36.496Z,20.10
2018-05-21T07:39:06.159Z,20.10
2018-05-21T07:41:34.783Z,20.20
2018-05-21T07:44:02.947Z,20.20
2018-05-21T07:46:31.583Z,20.20
2018-05-21T07:48:59.686Z,20.30
2018-05-21T07:51:28.995Z,20.40
2018-05-21T07:53:57.428Z,20.40
2018-05-21T07:56:26.267Z,20.60
2018-05-21T07:58:55.733Z,20.60
2018-05-21T08:01:23.870Z,20.60
2018-05-21T08:03:53.725Z,20.50
2018-05-21T08:06:22.146Z,20.60
2018-05-21T08:08:50.673Z,20.60
2018-05-21T08:11:20.958Z,20.70
2018-05-21T08:13:50.947Z,20.70
2018-05-21T08:16:19.591Z,20.80
2018-05-21T08:18:47.734Z,20.80
2018-05-21T08:21:16.223Z,20.80
2018-05-21T08:23:44.386Z,20.80
2018-05-21T08:26:13.485Z,20.90
2018-05-21T08:28:42.323Z,20.90
2018-05-21T08:31:10.494Z,20.80
2018-05-21T08:33:39.547Z,20.90
2018-05-21T08:36:07.966Z,21.00
2018-05-21T08:38:36.530Z,21.10
2018-05-21T08:41:04.910Z,21.10
2018-05-21T08:43:33.581Z,21.30
2018-05-21T08:46:01.855Z,21.30
2018-05-21T08:48:30.334Z,21.40
2018-05-21T08:50:59.473Z,21.50
2018-05-21T08:53:27.639Z,21.70
2018-05-21T08:55:55.851Z,21.80
2018-05-21T08:58:24.631Z,21.90
2018-05-21T09:00:53.783Z,21.90
2018-05-21T09:05:53.038Z,22.00
2018-05-21T09:08:21.518Z,22.00
2018-05-21T09:10:50.066Z,22.00
2018-05-21T09:13:18.605Z,22.10
2018-05-21T09:15:47.030Z,22.10
2018-05-21T09:18:15.657Z,22.20
2018-05-21T09:20:44.369Z,22.20
2018-05-21T09:23:13.426Z,22.40
2018-05-21T09:25:42.475Z,22.40
2018-05-21T09:28:11.079Z,22.40
2018-05-21T09:30:39.643Z,22.60
2018-05-21T09:33:08.466Z,22.60
2018-05-21T09:35:37.727Z,22.60
2018-05-21T09:38:07.712Z,22.70
2018-05-21T09:40:36.654Z,22.80
2018-05-21T09:43:05.645Z,22.90
2018-05-21T09:45:36.333Z,23.00
2018-05-21T09:48:05.699Z,22.90
2018-05-21T09:50:34.847Z,23.00
2018-05-21T09:53:03.476Z,23.20
2018-05-21T09:55:32.001Z,23.20
2018-05-21T09:58:00.423Z,23.20
2018-05-21T10:00:28.844Z,23.30
2018-05-21T10:02:58.205Z,23.30
2018-05-21T10:05:26.626Z,23.40
2018-05-21T10:07:55.257Z,23.40
2018-05-21T10:10:23.678Z,23.40
2018-05-21T10:12:52.735Z,23.50
2018-05-21T10:15:21.878Z,23.40
2018-05-21T10:17:50.914Z,23.50
2018-05-21T10:20:19.557Z,23.60
2018-05-21T10:22:47.703Z,23.70
2018-05-21T10:25:16.698Z,23.70
2018-05-21T10:27:45.447Z,23.70
2018-05-21T10:30:14.482Z,23.90
2018-05-21T10:32:42.665Z,23.80
2018-05-21T10:35:11.195Z,23.70
2018-05-21T10:37:39.382Z,23.80
2018-05-21T10:40:08.597Z,23.90
2018-05-21T10:42:36.782Z,23.90
2018-05-21T10:45:05.636Z,24.00
2018-05-21T10:47:33.813Z,24.10
2018-05-21T10:50:03.005Z,24.00
2018-05-21T10:52:31.503Z,24.10
2018-05-21T10:55:00.693Z,24.00
2018-05-21T10:57:28.909Z,24.10
2018-05-21T10:59:57.429Z,24.20
2018-05-21T11:02:26.764Z,24.40
2018-05-21T11:04:55.762Z,24.40
2018-05-21T11:07:24.468Z,24.40
2018-05-21T11:09:52.606Z,24.50
2018-05-21T11:12:21.733Z,24.40
2018-05-21T11:14:50.530Z,24.30
2018-05-21T11:17:19.498Z,24.30
2018-05-21T11:19:47.685Z,24.30
2018-05-21T11:22:16.862Z,24.40
2018-05-21T11:24:45.605Z,24.40
2018-05-21T11:27:13.647Z,24.60
2018-05-21T11:29:43.603Z,24.80
2018-05-21T11:32:12.442Z,24.80
2018-05-21T11:34:40.862Z,24.80
2018-05-21T11:37:09.492Z,24.90
2018-05-21T11:39:39.367Z,25.00
2018-05-21T11:42:08.319Z,25.20
2018-05-21T11:44:37.367Z,25.40
2018-05-21T11:47:05.531Z,25.50
2018-05-21T11:49:34.628Z,25.60
2018-05-21T11:52:03.466Z,25.80
2018-05-21T11:54:33.559Z,26.00
2018-05-21T11:57:02.816Z,26.00
2018-05-21T11:59:31.310Z,26.20
2018-05-21T12:01:59.507Z,26.20
2018-05-21T12:04:28.393Z,26.30
2018-05-21T12:06:58.994Z,26.50
2018-05-21T12:09:27.398Z,26.40
2018-05-21T12:11:56.567Z,26.60
2018-05-21T12:14:25.733Z,26.60
2018-05-21T12:16:54.324Z,26.60
2018-05-21T12:19:23.186Z,26.80
2018-05-21T12:21:51.398Z,26.90
2018-05-21T12:24:19.835Z,27.10
2018-05-21T12:26:48.222Z,27.10
2018-05-21T12:29:16.394Z,26.90
2018-05-21T12:31:45.371Z,27.10
2018-05-21T12:34:13.547Z,27.00
2018-05-21T12:36:43.287Z,27.40
2018-05-21T12:39:11.721Z,27.30
2018-05-21T12:41:40.246Z,27.40
2018-05-21T12:44:09.386Z,27.50
2018-05-21T12:46:39.168Z,27.60
2018-05-21T12:49:07.587Z,27.60
2018-05-21T12:51:35.771Z,27.70
2018-05-21T12:54:05.280Z,27.60
2018-05-21T12:56:33.699Z,27.40
2018-05-21T12:59:02.851Z,27.40
2018-05-21T13:01:31.443Z,27.50
2018-05-21T13:04:00.542Z,27.80
2018-05-21T13:06:28.727Z,28.00
2018-05-21T13:08:57.335Z,28.30
2018-05-21T13:11:26.511Z,28.40
2018-05-21T13:13:54.690Z,28.70
2018-05-21T13:16:23.365Z,28.80
2018-05-21T13:18:51.579Z,28.70
2018-05-21T13:21:20.103Z,28.70
2018-05-21T13:23:48.249Z,28.50
2018-05-21T13:26:17.983Z,27.90
2018-05-21T13:28:46.419Z,27.80
2018-05-21T13:31:14.599Z,27.90
2018-05-21T13:33:43.358Z,27.90
2018-05-21T13:36:11.538Z,28.10
2018-05-21T13:38:39.749Z,28.20
2018-05-21T13:41:08.309Z,28.40
2018-05-21T13:43:36.454Z,28.50
2018-05-21T13:46:05.555Z,28.50
2018-05-21T13:48:34.534Z,28.30
2018-05-21T13:51:03.482Z,28.20
2018-05-21T13:53:31.982Z,28.20
2018-05-21T13:56:00.242Z,28.40
2018-05-21T13:58:28.928Z,28.50
2018-05-21T14:00:57.561Z,28.70
2018-05-21T14:03:25.713Z,28.90
2018-05-21T14:05:54.258Z,29.10
2018-05-21T14:08:22.926Z,29.10
2018-05-21T14:10:51.523Z,29.10
2018-05-21T14:13:20.709Z,29.20
2018-05-21T14:15:49.444Z,29.20
2018-05-21T14:18:18.374Z,29.20
2018-05-21T14:20:47.017Z,28.80
2018-05-21T14:23:16.135Z,28.90
2018-05-21T14:25:44.994Z,29.00
2018-05-21T14:28:14.369Z,29.10
2018-05-21T14:30:42.962Z,29.10
2018-05-21T14:33:11.540Z,28.90
2018-05-21T14:35:40.678Z,28.90
2018-05-21T14:38:10.040Z,29.00
2018-05-21T14:40:39.366Z,29.30
2018-05-21T14:43:07.543Z,29.30
2018-05-21T14:45:37.393Z,30.00
2018-05-21T14:48:05.554Z,29.90
2018-05-21T14:50:34.131Z,30.40
2018-05-21T14:53:02.270Z,30.60
2018-05-21T14:55:31.715Z,31.30
2018-05-21T14:58:00.299Z,31.20
2018-05-21T15:00:28.965Z,31.60
2018-05-21T15:02:57.350Z,31.70
2018-05-21T15:05:25.536Z,31.30
2018-05-21T15:07:54.082Z,31.20
2018-05-21T15:10:22.266Z,31.50
2018-05-21T15:12:50.760Z,31.90
2018-05-21T15:15:19.387Z,32.30
2018-05-21T15:17:47.913Z,32.80
2018-05-21T15:20:17.362Z,33.00
2018-05-21T15:22:46.206Z,33.20
2018-05-21T15:25:15.357Z,33.30
2018-05-21T15:27:43.791Z,32.30
2018-05-21T15:30:12.213Z,31.80
2018-05-21T15:32:41.041Z,31.30
2018-05-21T15:35:10.190Z,31.60
2018-05-21T15:37:38.366Z,31.30
2018-05-21T15:40:06.583Z,30.70
2018-05-21T15:42:35.767Z,30.50
2018-05-21T15:45:04.606Z,30.70
2018-05-21T15:47:33.212Z,30.70
2018-05-21T15:50:01.741Z,30.40
2018-05-21T15:52:30.266Z,30.30
2018-05-21T15:54:58.446Z,30.20
2018-05-21T15:57:26.703Z,30.00
2018-05-21T15:59:56.597Z,29.50
2018-05-21T16:02:25.761Z,29.40
2018-05-21T16:04:55.022Z,29.20
2018-05-21T16:07:23.439Z,29.00
2018-05-21T16:09:52.384Z,28.80
2018-05-21T16:12:20.791Z,28.70
2018-05-21T16:14:49.435Z,28.40
2018-05-21T16:17:18.690Z,28.20
2018-05-21T16:19:48.351Z,27.60
2018-05-21T16:22:16.550Z,27.50
2018-05-21T16:24:44.960Z,27.30
2018-05-21T16:27:13.143Z,27.30
2018-05-21T16:29:41.515Z,27.30
2018-05-21T16:32:10.667Z,27.10
2018-05-21T16:34:39.298Z,26.90
2018-05-21T16:37:07.940Z,26.80
2018-05-21T16:39:36.530Z,26.60
2018-05-21T16:42:05.201Z,26.40
2018-05-21T16:44:33.726Z,26.30
2018-05-21T16:47:02.148Z,26.20
2018-05-21T16:49:30.673Z,26.10
2018-05-21T16:52:00.439Z,26.00
2018-05-21T16:54:28.873Z,25.90
2018-05-21T16:56:57.403Z,25.80
2018-05-21T16:59:26.542Z,25.70
2018-05-21T17:01:55.390Z,25.60
2018-05-21T17:04:24.547Z,25.40
2018-05-21T17:06:53.175Z,25.40
2018-05-21T17:09:21.594Z,25.30
2018-05-21T17:11:50.735Z,25.20
2018-05-21T17:14:20.630Z,25.20
2018-05-21T17:16:49.260Z,25.10
2018-05-21T17:19:17.786Z,25.10
2018-05-21T17:21:46.416Z,25.10
2018-05-21T17:24:15.559Z,25.10
2018-05-21T17:26:44.197Z,25.10
2018-05-21T17:29:12.411Z,25.00
2018-05-21T17:31:40.546Z,25.00
2018-05-21T17:34:09.775Z,25.10
2018-05-21T17:36:38.405Z,25.00
2018-05-21T17:39:07.245Z,25.10
2018-05-21T17:41:35.665Z,25.00
2018-05-21T17:44:04.341Z,25.10
2018-05-21T17:46:32.430Z,25.10
2018-05-21T17:49:01.374Z,25.00
2018-05-21T17:51:30.082Z,25.00
2018-05-21T17:54:00.174Z,25.00
2018-05-21T17:56:29.326Z,24.90
2018-05-21T17:58:58.778Z,24.80
2018-05-21T18:01:27.438Z,24.70
2018-05-21T18:03:56.387Z,24.60
2018-05-21T18:06:25.727Z,24.50
2018-05-21T18:08:54.410Z,24.40
2018-05-21T18:11:22.493Z,24.30
2018-05-21T18:13:51.199Z,24.30
2018-05-21T18:16:19.345Z,24.20
2018-05-21T18:18:48.310Z,23.90
2018-05-21T18:21:17.444Z,23.90
2018-05-21T18:23:46.231Z,23.90
2018-05-21T18:26:15.278Z,23.80
2018-05-21T18:28:43.462Z,23.80
2018-05-21T18:31:12.552Z,23.70
2018-05-21T18:33:41.076Z,23.60
2018-05-21T18:36:09.462Z,23.60
2018-05-21T18:38:37.919Z,23.60
2018-05-21T18:41:06.758Z,23.50
2018-05-21T18:43:35.388Z,23.40
2018-05-21T18:46:03.534Z,23.40
2018-05-21T18:48:32.129Z,23.30
2018-05-21T18:51:00.266Z,23.30
2018-05-21T18:53:29.163Z,23.30
2018-05-21T18:55:58.506Z,23.40
2018-05-21T18:58:27.032Z,23.30
2018-05-21T19:00:55.891Z,23.30
2018-05-21T19:03:24.390Z,23.20
2018-05-21T19:05:53.059Z,23.20
2018-05-21T19:08:21.202Z,23.10
2018-05-21T19:10:49.695Z,23.10
2018-05-21T19:13:18.323Z,23.10
2018-05-21T19:15:46.849Z,23.00
2018-05-21T19:18:14.996Z,22.90
2018-05-21T19:20:43.888Z,22.90
2018-05-21T19:23:12.058Z,22.80
2018-05-21T19:25:40.742Z,22.70
2018-05-21T19:28:09.268Z,22.60
2018-05-21T19:30:37.410Z,22.50
2018-05-21T19:33:06.006Z,22.50
2018-05-21T19:35:34.160Z,22.50
2018-05-21T19:38:02.330Z,22.40
2018-05-21T19:40:30.851Z,22.40
2018-05-21T19:42:59.795Z,22.50
2018-05-21T19:45:27.966Z,22.40
2018-05-21T19:47:56.840Z,22.40
2018-05-21T19:50:26.000Z,22.40
2018-05-21T19:52:54.406Z,22.30
2018-05-21T19:55:23.573Z,22.30
2018-05-21T19:57:52.062Z,22.30
2018-05-21T20:00:21.773Z,22.30
2018-05-21T20:02:51.032Z,22.20
2018-05-21T20:05:20.062Z,22.20
2018-05-21T20:07:48.708Z,22.30
2018-05-21T20:10:17.302Z,22.20
2018-05-21T20:12:46.479Z,22.20
2018-05-21T20:15:15.644Z,22.10
2018-05-21T20:17:44.174Z,22.10
2018-05-21T20:20:12.693Z,22.10
2018-05-21T20:22:41.940Z,22.00
2018-05-21T20:25:11.102Z,21.90
2018-05-21T20:27:40.047Z,21.80
2018-05-21T20:30:09.291Z,21.80
2018-05-21T20:32:37.475Z,21.70
2018-05-21T20:35:06.041Z,21.80
2018-05-21T20:37:35.301Z,21.80
2018-05-21T20:40:04.230Z,21.70
2018-05-21T20:42:32.456Z,21.70
2018-05-21T20:45:01.285Z,21.60
2018-05-21T20:47:29.714Z,21.60
2018-05-21T20:49:58.344Z,21.60
2018-05-21T20:52:26.901Z,21.60
2018-05-21T20:54:55.506Z,21.60
2018-05-21T20:57:24.868Z,21.50
2018-05-21T20:59:54.013Z,21.40
2018-05-21T21:02:22.748Z,21.30
2018-05-21T21:04:51.273Z,21.20
2018-05-21T21:07:19.426Z,21.10
2018-05-21T21:09:47.906Z,21.10
2018-05-21T21:12:16.498Z,21.10
2018-05-21T21:14:45.167Z,21.00
2018-05-21T21:17:14.942Z,21.00
2018-05-21T21:19:43.984Z,21.30
2018-05-21T21:22:13.134Z,21.20
2018-05-21T21:24:43.020Z,21.10
2018-05-21T21:27:11.660Z,21.10
2018-05-21T21:29:40.082Z,21.10
2018-05-21T21:32:08.502Z,21.00
2018-05-21T21:34:37.133Z,21.00
2018-05-21T21:37:05.270Z,21.10
2018-05-21T21:39:33.766Z,21.10
2018-05-21T21:42:03.011Z,21.10
2018-05-21T21:44:31.602Z,21.10
2018-05-21T21:47:00.179Z,20.90
2018-05-21T21:49:29.712Z,20.70
2018-05-21T21:51:58.380Z,20.70
2018-05-21T21:54:27.519Z,20.60
2018-05-21T21:56:56.775Z,20.50
2018-05-21T21:59:25.950Z,20.50
2018-05-21T22:01:55.372Z,20.30
2018-05-21T22:04:23.555Z,20.30
2018-05-21T22:06:52.144Z,20.20
2018-05-21T22:09:20.287Z,20.20
2018-05-21T22:11:49.721Z,19.90
2018-05-21T22:14:18.244Z,19.80
2018-05-21T22:16:46.381Z,19.90
2018-05-21T22:19:15.817Z,19.60
2018-05-21T22:21:43.986Z,19.60
2018-05-21T22:24:12.519Z,19.60
2018-05-21T22:26:40.976Z,19.60
2018-05-21T22:29:09.127Z,19.50
2018-05-21T22:31:37.607Z,19.50
2018-05-21T22:34:06.136Z,19.30
2018-05-21T22:36:34.557Z,19.30
2018-05-21T22:39:04.028Z,19.30
2018-05-21T22:41:32.190Z,19.30
2018-05-21T22:44:00.382Z,19.30
2018-05-21T22:46:28.973Z,19.30
2018-05-21T22:48:58.229Z,19.30
2018-05-21T22:51:26.755Z,19.20
2018-05-21T22:53:55.285Z,19.20
2018-05-21T22:56:23.434Z,19.30
2018-05-21T22:58:52.018Z,19.30
2018-05-21T23:01:20.150Z,19.20
2018-05-21T23:03:49.098Z,19.20
2018-05-21T23:06:18.054Z,19.10
2018-05-21T23:08:47.154Z,19.10
2018-05-21T23:11:15.802Z,19.20
2018-05-21T23:13:43.934Z,19.20
2018-05-21T23:16:13.567Z,19.30
2018-05-21T23:18:42.170Z,19.20
2018-05-21T23:21:11.259Z,19.20
2018-05-21T23:23:39.643Z,19.20
2018-05-21T23:26:08.819Z,19.20
2018-05-21T23:28:36.994Z,19.20
2018-05-21T23:31:06.078Z,19.10
2018-05-21T23:33:34.291Z,19.20
2018-05-21T23:36:03.443Z,19.20
2018-05-21T23:38:32.175Z,19.20
2018-05-21T23:41:00.600Z,19.10
2018-05-21T23:43:29.240Z,19.00
2018-05-21T23:45:57.390Z,19.00
2018-05-21T23:48:25.978Z,18.90
2018-05-21T23:50:54.412Z,18.80
2018-05-21T23:53:23.227Z,18.80
2018-05-21T23:55:51.738Z,18.80
2018-05-21T23:58:21.231Z,18.70
